Terminal Aerodrome Forecast
Issued by NWS Wakefield, VA

Home | Current Version | Previous Version | Text Only | Print | Product List | Glossary On
Versions: 1 2 3 4 5 6 7 8 9 10 11 12 13 14 15 16 17 18 19 20 21 22 23 24 25 26 27 28
306
FTUS41 KAKQ 162327
TAFSBY
TAF
KSBY 162327Z 1700/1724 35008KT P6SM SCT250
     FM170700 35006KT P6SM SKC
     FM171500 36008KT P6SM SKC
     FM172200 01004KT P6SM SKC=

USA.gov is the U.S. government's official web portal to all federal, state and local government web resources and services.